Time;durP1;ratioP1;P1;durP2;ratioP2;P2;SDS_P1;SDS_P2;PMS_P1;PMS_P2;Temp;Humidity;BMP_temperature;BMP_pressure;BME280_temperature;BME280_humidity;BME280_pressure;Samples;Min_cycle;Max_cycle;Signal;HPM_P1;HPM_P2
2023/08/02 00:02:15;;;;;;;23.63;15.88;;;16.60;66.90;;;;;;5095785;28;20039;-64
2023/08/02 00:04:42;;;;;;;24.00;16.15;;;16.70;66.20;;;;;;5094718;28;20035;-63
2023/08/02 00:07:10;;;;;;;21.77;14.52;;;16.80;65.10;;;;;;5094191;28;20031;-63
2023/08/02 00:09:37;;;;;;;21.65;14.88;;;16.80;66.30;;;;;;5094697;28;20054;-62
2023/08/02 00:12:05;;;;;;;23.45;14.00;;;17.00;66.20;;;;;;5095506;28;20345;-62
2023/08/02 00:14:33;;;;;;;26.55;14.27;;;16.90;65.60;;;;;;5095576;28;20505;-64
2023/08/02 00:17:00;;;;;;;23.65;14.68;;;16.80;65.90;;;;;;5095467;28;20023;-63
2023/08/02 00:19:28;;;;;;;22.02;14.93;;;16.90;65.90;;;;;;5095469;28;20020;-63
2023/08/02 00:21:55;;;;;;;24.85;15.18;;;16.50;66.60;;;;;;5094550;28;20352;-63
2023/08/02 00:24:23;;;;;;;24.10;15.48;;;16.60;66.90;;;;;;5094439;28;20437;-63
2023/08/02 00:26:50;;;;;;;22.38;14.90;;;16.60;66.90;;;;;;5095383;28;20482;-63
2023/08/02 00:29:18;;;;;;;20.92;14.07;;;16.40;67.20;;;;;;5094285;28;20395;-62
2023/08/02 00:31:45;;;;;;;22.67;14.52;;;16.70;67.10;;;;;;5095158;28;20016;-62
2023/08/02 00:34:13;;;;;;;25.80;13.25;;;17.00;66.20;;;;;;5094248;28;20056;-63
2023/08/02 00:36:41;;;;;;;20.92;13.23;;;17.10;66.20;;;;;;5095230;28;20107;-63
2023/08/02 00:39:10;;;;;;;24.48;13.73;;;17.10;66.00;;;;;;5094252;28;20021;-62
2023/08/02 00:42:02;;;;;;;20.63;11.98;;;17.10;66.00;;;;;;5094290;28;20036;-63
2023/08/02 00:44:30;;;;;;;18.25;11.43;;;17.20;66.20;;;;;;5094818;28;20032;-63
2023/08/02 00:46:58;;;;;;;18.65;10.63;;;17.30;66.60;;;;;;5094025;28;20061;-64
2023/08/02 00:49:26;;;;;;;18.77;11.43;;;17.60;65.30;;;;;;5094916;28;20024;-64
2023/08/02 00:51:57;;;;;;;17.42;10.05;;;17.90;65.10;;;;;;5095068;28;20024;-64
2023/08/02 00:54:29;;;;;;;16.60;10.55;;;18.10;64.70;;;;;;5097000;28;20012;-65
2023/08/02 00:57:02;;;;;;;23.73;10.82;;;18.30;64.00;;;;;;5095396;28;20035;-65
2023/08/02 00:59:30;;;;;;;17.65;7.68;;;18.50;63.40;;;;;;5095181;28;20069;-65
2023/08/02 01:01:57;;;;;;;19.58;8.73;;;18.50;64.10;;;;;;5093980;28;20027;-65
2023/08/02 01:04:25;;;;;;;16.67;8.82;;;19.10;62.60;;;;;;5093903;28;20026;-65
2023/08/02 01:07:03;;;;;;;17.25;8.25;;;19.30;61.30;;;;;;5093874;28;20078;-65
2023/08/02 01:09:39;;;;;;;15.77;8.52;;;19.20;61.90;;;;;;5093752;28;20377;-65
2023/08/02 01:12:12;;;;;;;16.35;8.35;;;19.10;62.20;;;;;;5094795;28;20036;-65
2023/08/02 01:14:46;;;;;;;13.77;7.30;;;19.10;61.70;;;;;;5094048;28;20016;-65
2023/08/02 01:17:14;;;;;;;15.85;7.45;;;19.20;62.00;;;;;;5093783;28;20027;-65
2023/08/02 01:19:45;;;;;;;16.45;7.78;;;19.20;61.60;;;;;;5094744;28;20020;-65
2023/08/02 01:22:12;;;;;;;16.65;8.18;;;19.00;62.30;;;;;;5098696;28;20032;-64
2023/08/02 01:24:40;;;;;;;16.10;7.28;;;18.90;62.70;;;;;;5097571;28;20107;-65
2023/08/02 01:27:18;;;;;;;16.02;7.47;;;19.00;63.70;;;;;;5098474;28;20038;-63
2023/08/02 01:29:50;;;;;;;14.48;5.82;;;18.80;63.50;;;;;;5098631;28;20024;-63
2023/08/02 01:32:21;;;;;;;19.42;6.93;;;18.60;64.90;;;;;;5098522;28;20395;-63
2023/08/02 01:34:49;;;;;;;11.32;4.40;;;18.30;65.80;;;;;;5097602;28;20039;-64
2023/08/02 01:37:16;;;;;;;11.43;2.85;;;18.10;68.30;;;;;;5098395;28;20453;-65
2023/08/02 01:39:44;;;;;;;7.00;2.80;;;17.90;69.30;;;;;;5097415;28;20060;-64
2023/08/02 01:42:12;;;;;;;10.20;3.28;;;17.70;70.30;;;;;;5097301;28;20028;-64
2023/08/02 01:44:40;;;;;;;11.77;2.70;;;17.70;71.10;;;;;;5098403;28;20027;-65
2023/08/02 01:47:07;;;;;;;9.38;2.80;;;17.60;71.80;;;;;;5097222;28;20078;-65
2023/08/02 01:49:35;;;;;;;9.15;2.60;;;17.40;72.60;;;;;;5097186;28;20035;-65
2023/08/02 01:52:02;;;;;;;8.18;2.97;;;17.30;73.40;;;;;;5098051;28;20069;-65
2023/08/02 01:54:30;;;;;;;10.27;2.17;;;17.30;74.10;;;;;;5098168;28;20357;-65
2023/08/02 01:56:57;;;;;;;9.43;2.72;;;17.20;72.80;;;;;;5096704;28;20024;-65
2023/08/02 01:59:25;;;;;;;11.10;2.67;;;17.50;73.80;;;;;;5097789;28;20051;-65
2023/08/02 02:01:52;;;;;;;11.73;2.58;;;17.70;72.80;;;;;;5097961;28;20023;-65
2023/08/02 02:04:20;;;;;;;8.80;2.42;;;17.90;72.10;;;;;;5096877;28;20073;-65
2023/08/02 02:06:47;;;;;;;9.95;2.75;;;17.90;71.00;;;;;;5097710;28;20487;-65
2023/08/02 02:09:14;;;;;;;9.18;2.45;;;18.20;70.80;;;;;;5097653;28;20483;-65
2023/08/02 02:11:42;;;;;;;10.07;3.08;;;18.40;68.80;;;;;;5097809;28;20449;-65
2023/08/02 02:14:10;;;;;;;8.73;2.33;;;18.60;69.30;;;;;;5097842;28;20055;-65
2023/08/02 02:16:37;;;;;;;6.90;2.00;;;18.80;67.50;;;;;;5096659;28;20032;-65
2023/08/02 02:19:04;;;;;;;9.68;1.98;;;18.70;68.00;;;;;;5096753;28;20024;-65
2023/08/02 02:21:32;;;;;;;10.02;1.95;;;18.70;67.30;;;;;;5096798;28;20028;-64
2023/08/02 02:23:59;;;;;;;11.30;2.28;;;18.70;67.70;;;;;;5096652;28;20039;-64
2023/08/02 02:26:27;;;;;;;9.45;1.75;;;18.90;67.90;;;;;;5097490;28;20028;-65
2023/08/02 02:28:55;;;;;;;7.43;1.80;;;19.60;66.20;;;;;;5097518;28;20035;-65
2023/08/02 02:31:22;;;;;;;7.07;1.67;;;19.70;64.00;;;;;;5096400;28;20035;-64
2023/08/02 02:33:50;;;;;;;10.45;2.33;;;19.70;64.60;;;;;;5096526;28;20512;-65
2023/08/02 02:36:17;;;;;;;11.23;1.98;;;19.90;64.20;;;;;;5097231;28;20051;-64
2023/08/02 02:38:45;;;;;;;9.90;2.25;;;19.90;64.00;;;;;;5097021;28;20070;-65
2023/08/02 02:41:12;;;;;;;8.80;2.00;;;20.00;64.10;;;;;;5097095;28;20353;-65
2023/08/02 02:43:40;;;;;;;9.07;2.15;;;20.10;63.30;;;;;;5096135;28;20123;-64
2023/08/02 02:46:07;;;;;;;9.00;2.60;;;20.00;63.70;;;;;;5096849;28;20024;-65
2023/08/02 02:48:35;;;;;;;9.40;2.50;;;20.00;63.60;;;;;;5095759;28;20024;-65
2023/08/02 02:51:02;;;;;;;10.75;2.13;;;20.10;63.30;;;;;;5096808;28;20020;-65
2023/08/02 02:53:30;;;;;;;8.20;2.35;;;20.40;63.00;;;;;;5096856;28;20024;-64
2023/08/02 02:55:57;;;;;;;10.40;2.80;;;20.20;62.20;;;;;;5096737;28;20106;-64
2023/08/02 02:58:25;;;;;;;9.25;2.70;;;20.10;62.60;;;;;;5096969;28;20017;-65
2023/08/02 03:00:53;;;;;;;10.55;3.40;;;19.70;62.80;;;;;;5096739;28;20027;-64
2023/08/02 03:03:21;;;;;;;12.10;3.13;;;19.70;62.60;;;;;;5095616;28;20024;-64
2023/08/02 03:05:48;;;;;;;10.23;3.30;;;19.30;63.80;;;;;;5095703;28;20032;-64
2023/08/02 03:08:16;;;;;;;9.15;3.22;;;19.40;64.00;;;;;;5095805;28;20051;-64
2023/08/02 03:10:43;;;;;;;10.20;3.28;;;19.40;64.30;;;;;;5096131;28;20050;-65
2023/08/02 03:13:10;;;;;;;9.30;2.65;;;19.40;63.70;;;;;;5095648;28;20035;-65
2023/08/02 03:15:38;;;;;;;10.27;2.67;;;19.30;63.80;;;;;;5095483;28;20079;-64
2023/08/02 03:18:05;;;;;;;10.18;2.72;;;19.30;64.70;;;;;;5095322;28;20016;-64
2023/08/02 03:20:33;;;;;;;9.73;3.08;;;19.00;65.00;;;;;;5095359;28;20036;-65
2023/08/02 03:23:00;;;;;;;9.45;2.83;;;19.00;65.20;;;;;;5096298;28;20437;-65
2023/08/02 03:25:28;;;;;;;8.60;2.88;;;19.10;65.00;;;;;;5095192;28;20059;-65
2023/08/02 03:27:55;;;;;;;12.23;3.20;;;19.10;64.90;;;;;;5096188;28;20020;-65
2023/08/02 03:30:23;;;;;;;10.55;3.00;;;18.80;65.30;;;;;;5096187;28;20087;-65
2023/08/02 03:32:51;;;;;;;7.40;2.75;;;18.80;65.40;;;;;;5095073;28;20078;-65
2023/08/02 03:35:18;;;;;;;9.73;2.67;;;18.70;65.10;;;;;;5094952;28;20516;-65
2023/08/02 03:37:46;;;;;;;9.32;3.13;;;18.70;65.60;;;;;;5095861;28;20349;-64
2023/08/02 03:40:13;;;;;;;8.90;3.53;;;18.80;65.90;;;;;;5094836;28;20051;-65
2023/08/02 03:42:41;;;;;;;14.48;4.03;;;18.60;65.00;;;;;;5095689;28;20330;-64
2023/08/02 03:45:09;;;;;;;11.52;3.00;;;18.60;65.80;;;;;;5094711;28;20016;-65
2023/08/02 03:47:37;;;;;;;8.75;3.28;;;18.60;66.10;;;;;;5095630;28;20047;-65
2023/08/02 03:50:05;;;;;;;11.18;2.85;;;18.60;65.70;;;;;;5095589;28;20023;-64
2023/08/02 03:52:32;;;;;;;8.75;3.45;;;18.60;66.30;;;;;;5095517;28;20020;-64
2023/08/02 03:55:00;;;;;;;9.50;2.97;;;18.60;66.00;;;;;;5094522;28;20042;-64
2023/08/02 03:57:27;;;;;;;7.90;2.45;;;18.70;65.90;;;;;;5094507;28;20036;-64
2023/08/02 03:59:55;;;;;;;8.02;2.35;;;18.60;65.60;;;;;;5095492;28;20016;-66
2023/08/02 04:02:22;;;;;;;8.52;2.63;;;18.60;65.70;;;;;;5096110;28;20024;-66
2023/08/02 04:04:50;;;;;;;9.30;3.13;;;18.60;65.80;;;;;;5095594;28;20481;-66
2023/08/02 04:07:17;;;;;;;8.30;2.47;;;18.60;66.00;;;;;;5094452;28;20036;-66
2023/08/02 04:09:45;;;;;;;8.60;2.90;;;18.60;66.70;;;;;;5095364;28;20481;-65
2023/08/02 04:12:19;;;;;;;8.57;2.28;;;18.70;66.40;;;;;;5094463;28;20040;-64
2023/08/02 04:14:47;;;;;;;10.60;3.40;;;18.60;66.80;;;;;;5095587;28;20020;-65
2023/08/02 04:17:15;;;;;;;8.15;2.78;;;18.50;66.60;;;;;;5077718;28;20024;-64
2023/08/02 04:19:42;;;;;;;10.85;3.15;;;18.60;66.70;;;;;;5095419;28;20107;-65
2023/08/02 04:22:09;;;;;;;9.43;2.75;;;18.70;66.60;;;;;;5094493;28;20065;-65
2023/08/02 04:24:37;;;;;;;13.90;3.33;;;18.80;66.60;;;;;;5095488;28;20115;-66
2023/08/02 04:27:05;;;;;;;10.93;3.20;;;18.70;66.30;;;;;;5095292;28;20055;-65
2023/08/02 04:29:33;;;;;;;9.07;2.90;;;18.60;66.20;;;;;;5095303;28;20077;-65
2023/08/02 04:32:00;;;;;;;10.80;2.92;;;18.50;66.80;;;;;;5094279;28;20073;-65
2023/08/02 04:34:28;;;;;;;9.98;2.42;;;18.40;67.00;;;;;;5094307;28;20028;-65
2023/08/02 04:36:55;;;;;;;8.77;2.72;;;18.50;66.90;;;;;;5094268;28;20357;-65
2023/08/02 04:39:23;;;;;;;12.00;2.92;;;18.60;66.40;;;;;;5094284;28;20020;-65
2023/08/02 04:42:00;;;;;;;6.72;2.38;;;18.70;66.30;;;;;;5095235;28;20069;-65
2023/08/02 04:44:28;;;;;;;9.52;2.60;;;18.80;65.80;;;;;;5095163;28;20472;-65
2023/08/02 04:46:56;;;;;;;9.50;2.58;;;18.90;65.90;;;;;;5094058;28;20028;-65
2023/08/02 04:49:23;;;;;;;9.48;2.83;;;18.90;65.30;;;;;;5095201;28;20020;-65
2023/08/02 04:51:54;;;;;;;9.80;2.88;;;18.90;65.90;;;;;;5094075;28;20072;-65
2023/08/02 04:54:22;;;;;;;6.32;2.78;;;18.70;65.90;;;;;;5095476;28;20024;-65
2023/08/02 04:56:50;;;;;;;9.40;3.00;;;18.80;66.90;;;;;;5099156;28;20031;-65
2023/08/02 04:59:17;;;;;;;9.05;2.53;;;18.90;65.60;;;;;;5099206;28;20020;-65
2023/08/02 05:01:45;;;;;;;9.38;2.40;;;19.00;65.60;;;;;;5098187;28;20359;-65
2023/08/02 05:04:13;;;;;;;9.15;2.40;;;19.00;66.00;;;;;;5098210;28;20028;-65
2023/08/02 05:06:42;;;;;;;9.30;1.80;;;19.00;65.30;;;;;;5097955;28;20066;-65
2023/08/02 05:09:11;;;;;;;6.57;1.58;;;18.50;65.50;;;;;;5097603;28;20083;-65
2023/08/02 05:11:41;;;;;;;9.00;1.50;;;18.60;65.70;;;;;;5097944;28;20046;-65
2023/08/02 05:14:08;;;;;;;10.18;2.67;;;18.60;65.50;;;;;;5098955;28;20352;-65
2023/08/02 05:16:36;;;;;;;8.60;2.25;;;18.60;65.90;;;;;;5097808;28;20024;-66
2023/08/02 05:19:04;;;;;;;10.48;2.10;;;18.70;65.60;;;;;;5098021;28;20357;-65
2023/08/02 05:21:32;;;;;;;9.80;1.80;;;18.80;64.90;;;;;;5098736;28;20085;-65
2023/08/02 05:23:59;;;;;;;7.75;1.60;;;18.60;65.20;;;;;;5097764;28;20028;-65
2023/08/02 05:26:27;;;;;;;12.57;1.90;;;18.60;65.90;;;;;;5099686;28;20031;-66
2023/08/02 05:28:54;;;;;;;6.95;1.85;;;18.60;65.90;;;;;;5098549;28;20097;-66
2023/08/02 05:31:21;;;;;;;5.88;1.80;;;18.50;66.40;;;;;;5099188;28;20039;-65
2023/08/02 05:33:49;;;;;;;9.82;2.42;;;18.50;67.30;;;;;;5098849;28;20022;-66
2023/08/02 05:36:17;;;;;;;8.55;1.95;;;18.50;66.60;;;;;;5097998;28;20012;-65
2023/08/02 05:38:44;;;;;;;14.73;2.38;;;18.50;66.50;;;;;;5098487;28;20024;-66
2023/08/02 05:41:11;;;;;;;7.85;1.80;;;18.40;66.90;;;;;;5100184;28;20113;-66
2023/08/02 05:43:44;;;;;;;7.15;1.60;;;18.50;65.90;;;;;;5096224;28;20054;-66
2023/08/02 05:46:12;;;;;;;10.50;1.80;;;18.50;66.30;;;;;;5097270;28;20039;-66
2023/08/02 05:48:40;;;;;;;8.02;2.08;;;18.50;66.30;;;;;;5099681;28;20453;-66
2023/08/02 05:51:08;;;;;;;6.20;1.50;;;18.50;66.30;;;;;;5097075;28;20055;-66
2023/08/02 05:53:35;;;;;;;10.32;1.80;;;18.60;66.80;;;;;;5097967;28;20020;-66
2023/08/02 05:56:04;;;;;;;8.88;1.83;;;18.60;66.70;;;;;;5097942;28;20020;-65
2023/08/02 05:58:32;;;;;;;9.18;1.98;;;18.60;67.10;;;;;;5097457;28;20028;-66
2023/08/02 06:00:59;;;;;;;9.80;1.83;;;18.50;66.40;;;;;;5096699;28;20028;-66
2023/08/02 06:03:27;;;;;;;7.68;1.60;;;18.60;66.50;;;;;;5098046;28;20454;-66
2023/08/02 06:05:54;;;;;;;7.53;1.75;;;18.60;66.10;;;;;;5097253;28;20085;-66
2023/08/02 06:08:22;;;;;;;7.47;1.38;;;18.50;66.40;;;;;;5097371;28;20040;-66
2023/08/02 06:31:12;;;;;;;11.88;2.15;;;18.10;67.80;;;;;;5072659;27;20392;-65
2023/08/02 06:33:39;;;;;;;10.77;2.30;;;17.80;68.50;;;;;;5071416;28;20040;-66
2023/08/02 06:36:07;;;;;;;8.23;1.90;;;17.80;68.10;;;;;;5072455;28;20017;-66
2023/08/02 06:38:34;;;;;;;6.00;1.60;;;17.90;68.00;;;;;;5051322;28;20476;-66
2023/08/02 06:41:02;;;;;;;10.98;2.00;;;17.80;68.40;;;;;;5049538;28;20033;-66
2023/08/02 06:43:30;;;;;;;10.98;2.13;;;17.60;68.50;;;;;;5050449;28;20047;-66
2023/08/02 07:07:15;;;;;;;10.27;1.98;;;16.80;69.50;;;;;;5083972;27;20452;-66
2023/08/02 07:09:42;;;;;;;8.88;1.95;;;16.70;69.80;;;;;;5079970;28;20032;-66
2023/08/02 07:12:10;;;;;;;6.20;1.40;;;16.70;69.90;;;;;;5080191;28;20465;-65
2023/08/02 07:14:37;;;;;;;8.00;1.33;;;16.70;69.90;;;;;;5080921;28;20055;-66
2023/08/02 07:17:05;;;;;;;8.07;1.73;;;16.60;70.10;;;;;;5081371;28;20024;-68
2023/08/02 07:19:33;;;;;;;8.13;1.92;;;16.60;70.20;;;;;;5073018;28;20024;-68
2023/08/02 07:22:01;;;;;;;7.85;1.60;;;16.50;70.50;;;;;;5072000;28;20027;-68
2023/08/02 07:24:28;;;;;;;6.88;1.77;;;16.50;70.70;;;;;;5071017;28;20016;-69
2023/08/02 07:26:56;;;;;;;9.93;2.30;;;16.50;70.80;;;;;;5072075;28;20510;-68
2023/08/02 07:29:24;;;;;;;8.82;2.33;;;16.50;70.70;;;;;;5071117;28;20028;-67
2023/08/02 07:31:51;;;;;;;7.47;1.73;;;16.30;71.10;;;;;;5069257;28;20020;-67
2023/08/02 07:34:18;;;;;;;9.02;1.63;;;16.20;71.30;;;;;;5071051;28;20025;-66
2023/08/02 07:36:46;;;;;;;9.48;1.75;;;16.10;72.00;;;;;;5071029;28;20150;-66
2023/08/02 07:39:13;;;;;;;9.38;1.80;;;16.00;72.00;;;;;;5071806;28;20024;-68
2023/08/02 07:41:41;;;;;;;9.65;2.00;;;15.80;72.40;;;;;;5070938;28;20036;-68
2023/08/02 07:44:08;;;;;;;12.35;2.20;;;15.80;72.70;;;;;;5071091;28;20158;-67
2023/08/02 07:46:36;;;;;;;10.90;2.40;;;15.60;72.80;;;;;;5071047;28;20035;-67
2023/08/02 07:49:03;;;;;;;13.68;2.28;;;15.50;73.60;;;;;;5071771;28;20021;-67
2023/08/02 07:51:31;;;;;;;9.27;2.20;;;15.30;74.10;;;;;;5070744;28;20103;-68
2023/08/02 07:53:58;;;;;;;9.73;2.08;;;15.10;74.50;;;;;;5071776;28;20017;-67
2023/08/02 07:56:25;;;;;;;10.38;1.95;;;15.00;75.60;;;;;;5072536;28;20020;-67
2023/08/02 07:58:53;;;;;;;13.20;2.80;;;14.90;75.90;;;;;;5070943;28;20132;-67
2023/08/02 08:01:21;;;;;;;7.57;2.30;;;14.80;76.10;;;;;;5071204;28;20028;-67
2023/08/02 08:03:48;;;;;;;11.57;2.83;;;14.70;76.30;;;;;;5071180;28;20019;-67
2023/08/02 08:06:20;;;;;;;11.23;2.90;;;14.50;76.60;;;;;;5069803;28;20131;-65
2023/08/02 08:08:50;;;;;;;13.90;3.25;;;14.50;77.60;;;;;;5071052;28;20115;-65
2023/08/02 08:11:18;;;;;;;15.82;4.50;;;14.40;77.80;;;;;;5069915;28;20041;-65
2023/08/02 08:13:45;;;;;;;11.77;4.40;;;14.20;78.50;;;;;;5069429;28;20099;-64
2023/08/02 08:16:13;;;;;;;22.77;7.20;;;14.00;79.30;;;;;;5069230;28;20020;-66
2023/08/02 08:18:40;;;;;;;18.00;5.90;;;14.00;79.70;;;;;;5056798;28;20036;-66
2023/08/02 08:21:08;;;;;;;19.52;6.05;;;13.90;79.00;;;;;;5057663;28;20021;-67
2023/08/02 08:23:35;;;;;;;17.88;5.70;;;13.90;80.10;;;;;;5056597;28;20363;-67
2023/08/02 08:26:03;;;;;;;18.45;6.05;;;13.80;80.10;;;;;;5057026;28;20025;-66
2023/08/02 08:28:32;;;;;;;17.20;5.82;;;13.60;80.70;;;;;;5056023;28;20022;-66
2023/08/02 08:31:04;;;;;;;14.85;4.10;;;13.60;80.50;;;;;;5057303;28;20021;-65
2023/08/02 08:33:32;;;;;;;11.98;4.10;;;13.50;81.50;;;;;;5056504;28;20442;-66
2023/08/02 08:36:00;;;;;;;15.10;4.93;;;13.40;82.00;;;;;;5057371;28;20044;-66
2023/08/02 08:38:27;;;;;;;17.70;5.18;;;13.30;82.20;;;;;;5057041;28;20120;-65
2023/08/02 08:40:56;;;;;;;10.15;3.22;;;13.20;82.00;;;;;;5056626;28;20035;-67
2023/08/02 08:43:28;;;;;;;10.07;3.30;;;13.20;82.50;;;;;;5056916;28;20494;-65
2023/08/02 08:45:56;;;;;;;11.02;2.72;;;13.10;82.80;;;;;;5072569;28;20055;-65
2023/08/02 08:48:26;;;;;;;13.25;3.05;;;13.10;82.50;;;;;;5056139;28;20047;-63
2023/08/02 08:50:56;;;;;;;12.38;3.40;;;13.00;83.00;;;;;;5039698;28;20018;-63
2023/08/02 08:53:33;;;;;;;11.73;3.42;;;13.00;83.00;;;;;;5057404;28;20079;-64
2023/08/02 08:56:02;;;;;;;13.85;3.28;;;12.90;83.00;;;;;;5056282;28;20082;-68
2023/08/02 08:58:32;;;;;;;9.88;3.33;;;12.80;83.10;;;;;;5056800;28;20466;-69
2023/08/02 09:01:03;;;;;;;10.27;3.03;;;12.70;83.90;;;;;;5056957;28;20029;-69
2023/08/02 09:03:32;;;;;;;14.88;3.58;;;12.60;84.10;;;;;;5057625;28;20383;-68
2023/08/02 09:06:01;;;;;;;13.10;3.58;;;12.50;84.60;;;;;;5055809;28;20068;-69
2023/08/02 09:08:29;;;;;;;16.85;3.53;;;12.40;85.20;;;;;;5056875;28;20673;-70
2023/08/02 09:10:58;;;;;;;10.18;3.17;;;12.30;85.30;;;;;;5056819;28;20025;-69
2023/08/02 09:13:27;;;;;;;8.85;3.17;;;12.30;85.20;;;;;;5055730;28;20017;-68
2023/08/02 09:16:17;;;;;;;13.25;3.90;;;12.30;85.30;;;;;;5055641;28;20024;-68
2023/08/02 09:18:46;;;;;;;12.60;2.80;;;12.10;85.40;;;;;;5055623;28;20039;-68
2023/08/02 09:21:25;;;;;;;16.60;3.17;;;12.00;85.80;;;;;;5055698;28;20519;-70
2023/08/02 09:24:02;;;;;;;10.45;3.75;;;12.10;85.90;;;;;;5056687;28;20390;-69
2023/08/02 09:26:29;;;;;;;11.40;4.03;;;12.20;85.70;;;;;;5055477;28;20032;-68
2023/08/02 09:29:06;;;;;;;12.63;2.92;;;12.00;85.80;;;;;;5054462;28;20033;-68
2023/08/02 09:31:39;;;;;;;13.40;2.83;;;12.10;84.70;;;;;;5055453;28;20025;-69
2023/08/02 09:34:06;;;;;;;11.98;2.92;;;12.10;84.70;;;;;;5056232;28;20415;-70
2023/08/02 09:36:35;;;;;;;10.20;3.25;;;11.90;85.80;;;;;;5055257;28;20053;-70
2023/08/02 09:39:16;;;;;;;11.20;3.35;;;11.70;86.50;;;;;;5056303;28;20366;-69
2023/08/02 09:41:44;;;;;;;12.35;3.20;;;11.70;86.30;;;;;;5055374;28;20674;-70
2023/08/02 09:44:21;;;;;;;11.05;2.90;;;11.70;86.30;;;;;;5055210;28;20035;-70
2023/08/02 09:46:49;;;;;;;12.18;3.05;;;11.50;86.70;;;;;;5055332;28;20435;-70
2023/08/02 09:49:21;;;;;;;11.75;3.20;;;11.40;87.30;;;;;;5055187;28;20075;-69
2023/08/02 09:51:49;;;;;;;11.35;3.63;;;11.40;86.90;;;;;;5055061;28;20021;-69
2023/08/02 09:54:17;;;;;;;10.45;3.85;;;11.50;87.00;;;;;;5055306;28;20028;-68
2023/08/02 09:56:45;;;;;;;12.27;3.55;;;11.50;86.40;;;;;;5056160;28;20409;-70
2023/08/02 09:59:14;;;;;;;8.23;3.55;;;11.40;86.50;;;;;;5056198;28;20070;-70
2023/08/02 10:01:43;;;;;;;14.80;4.00;;;11.50;86.70;;;;;;5055242;28;20033;-67
2023/08/02 10:04:14;;;;;;;12.23;4.72;;;11.30;86.20;;;;;;5056017;28;20059;-67
2023/08/02 10:07:06;;;;;;;9.88;4.70;;;11.40;87.00;;;;;;5054712;28;20044;-67
2023/08/02 10:09:37;;;;;;;10.63;4.30;;;11.40;85.80;;;;;;5055070;28;20521;-68
2023/08/02 10:12:17;;;;;;;11.30;4.70;;;11.10;87.00;;;;;;5056180;28;20043;-68
2023/08/02 10:14:46;;;;;;;11.90;3.83;;;11.10;87.20;;;;;;5055459;28;20025;-67
2023/08/02 10:17:14;;;;;;;12.13;4.38;;;11.10;86.60;;;;;;5054994;28;20025;-66
2023/08/02 10:19:42;;;;;;;14.40;5.10;;;11.20;86.90;;;;;;5056019;28;20401;-67
2023/08/02 10:22:11;;;;;;;11.27;3.97;;;11.00;87.10;;;;;;5054883;28;20033;-68
2023/08/02 10:24:41;;;;;;;14.95;5.10;;;11.10;86.70;;;;;;5054850;28;20029;-70
2023/08/02 10:27:09;;;;;;;9.50;4.30;;;11.00;86.40;;;;;;5054414;28;20021;-70
2023/08/02 10:29:38;;;;;;;11.85;4.32;;;11.00;87.90;;;;;;5055532;28;20351;-70
2023/08/02 10:32:17;;;;;;;8.13;3.25;;;10.90;87.30;;;;;;5054494;28;20024;-69
2023/08/02 10:34:47;;;;;;;11.00;4.25;;;10.90;87.70;;;;;;5055595;28;20029;-68
2023/08/02 10:37:16;;;;;;;13.93;4.20;;;10.90;87.20;;;;;;5054541;28;20044;-68
2023/08/02 10:39:47;;;;;;;13.80;3.85;;;10.90;87.10;;;;;;5054208;28;20032;-69
2023/08/02 10:42:22;;;;;;;12.20;3.63;;;10.70;87.60;;;;;;5055348;28;20031;-67
2023/08/02 10:44:58;;;;;;;11.82;4.50;;;10.60;88.00;;;;;;5055286;28;20104;-67
2023/08/02 10:47:33;;;;;;;11.57;3.95;;;10.60;87.40;;;;;;5053984;28;20029;-68
2023/08/02 10:50:03;;;;;;;15.60;4.68;;;10.60;87.30;;;;;;5055309;28;20024;-69
2023/08/02 10:52:42;;;;;;;12.88;4.30;;;10.50;88.00;;;;;;5055425;28;20029;-69
2023/08/02 10:55:18;;;;;;;12.50;3.90;;;10.50;88.40;;;;;;5055406;28;20032;-69
2023/08/02 10:57:58;;;;;;;11.10;4.57;;;10.60;88.10;;;;;;5054004;28;20119;-69
2023/08/02 11:00:29;;;;;;;10.00;4.25;;;10.50;88.80;;;;;;5054048;28;20017;-69
2023/08/02 11:02:57;;;;;;;10.75;3.35;;;10.60;87.80;;;;;;5054369;28;20032;-69
2023/08/02 11:05:46;;;;;;;8.52;3.60;;;10.50;87.40;;;;;;5055013;28;20048;-67
2023/08/02 11:08:14;;;;;;;10.20;3.55;;;10.60;87.40;;;;;;5070662;28;20328;-68
2023/08/02 11:10:53;;;;;;;12.90;4.55;;;10.40;87.50;;;;;;5054926;28;20020;-68
2023/08/02 11:13:22;;;;;;;13.43;4.25;;;10.40;87.90;;;;;;5055031;28;20070;-67
2023/08/02 11:16:05;;;;;;;16.98;5.47;;;10.40;88.20;;;;;;5054144;28;20074;-68
2023/08/02 11:18:34;;;;;;;13.32;4.60;;;10.30;88.40;;;;;;5054255;28;20351;-68
2023/08/02 11:21:14;;;;;;;10.13;4.50;;;10.30;88.10;;;;;;5054622;28;20064;-66
2023/08/02 11:23:42;;;;;;;14.38;5.25;;;10.30;88.20;;;;;;5055431;28;20071;-67
2023/08/02 11:26:10;;;;;;;8.57;3.47;;;10.30;88.40;;;;;;5070450;28;20078;-64
2023/08/02 11:28:43;;;;;;;10.30;4.15;;;10.40;87.80;;;;;;5053839;28;20420;-66
2023/08/02 11:31:20;;;;;;;12.82;4.68;;;10.30;87.60;;;;;;5053942;28;20028;-67
2023/08/02 11:33:50;;;;;;;8.75;4.47;;;10.30;87.80;;;;;;5055689;28;20181;-68
2023/08/02 11:36:17;;;;;;;11.18;4.35;;;10.20;87.70;;;;;;5053448;28;20021;-68
2023/08/02 11:38:45;;;;;;;10.18;4.90;;;10.20;87.90;;;;;;5051466;28;20032;-67
2023/08/02 11:41:20;;;;;;;10.80;5.43;;;10.10;88.30;;;;;;5054186;28;20136;-67
2023/08/02 11:43:49;;;;;;;13.75;4.63;;;9.90;88.70;;;;;;5054350;28;20150;-67
2023/08/02 11:46:21;;;;;;;12.45;4.57;;;9.80;89.40;;;;;;5053468;28;20086;-67
2023/08/02 11:48:49;;;;;;;;;;;9.90;88.70;;;;;;5053989;28;20106;-68
2023/08/02 11:51:19;;;;;;;11.77;4.70;;;9.90;88.60;;;;;;5052436;28;20326;-69
2023/08/02 11:53:58;;;;;;;14.70;5.10;;;9.90;88.90;;;;;;5057718;28;20040;-69
2023/08/02 11:56:27;;;;;;;10.43;5.30;;;9.80;89.10;;;;;;5058112;28;20030;-67
2023/08/02 11:58:56;;;;;;;12.93;4.50;;;9.70;89.50;;;;;;5059093;28;20116;-69
2023/08/02 12:01:24;;;;;;;12.27;5.40;;;9.70;89.00;;;;;;5056868;28;20021;-69
2023/08/02 12:03:54;;;;;;;15.23;5.68;;;9.70;89.00;;;;;;5057693;28;20098;-69
2023/08/02 12:06:22;;;;;;;17.58;5.53;;;9.70;89.20;;;;;;5056438;28;20068;-69
2023/08/02 12:09:00;;;;;;;14.45;6.07;;;9.70;89.40;;;;;;5055921;28;20496;-68
2023/08/02 12:11:28;;;;;;;14.60;7.03;;;9.50;89.60;;;;;;5057583;28;20462;-69
2023/08/02 12:13:58;;;;;;;13.15;6.20;;;9.60;89.70;;;;;;5056378;28;20024;-69
2023/08/02 12:16:37;;;;;;;17.73;7.15;;;9.60;89.50;;;;;;5057780;28;20021;-67
2023/08/02 12:19:05;;;;;;;11.75;5.60;;;9.60;89.80;;;;;;5057951;28;20053;-68
2023/08/02 12:21:32;;;;;;;14.30;5.90;;;9.70;88.80;;;;;;5056733;28;20469;-69
2023/08/02 12:24:00;;;;;;;11.35;5.75;;;9.80;88.00;;;;;;5058439;28;20459;-68
2023/08/02 12:26:35;;;;;;;18.23;7.13;;;9.90;87.80;;;;;;5057612;28;20025;-69
2023/08/02 12:29:04;;;;;;;17.98;7.20;;;9.90;87.20;;;;;;5057248;28;20036;-69
2023/08/02 12:31:54;;;;;;;19.50;7.07;;;9.70;87.50;;;;;;5057981;28;20443;-69
2023/08/02 12:34:25;;;;;;;19.42;8.10;;;9.70;88.10;;;;;;5057599;28;20025;-69
2023/08/02 12:36:54;;;;;;;14.20;6.37;;;9.70;87.70;;;;;;5057792;28;20032;-70
2023/08/02 12:39:22;;;;;;;19.27;7.85;;;9.80;86.90;;;;;;5057183;28;20111;-66
2023/08/02 12:41:49;;;;;;;16.70;6.72;;;9.70;87.50;;;;;;5057755;28;20031;-69
2023/08/02 12:44:17;;;;;;;22.42;10.05;;;9.60;87.10;;;;;;5057795;28;20047;-68
2023/08/02 12:46:45;;;;;;;13.43;6.25;;;9.50;88.30;;;;;;5053709;28;20044;-70
2023/08/02 12:49:12;;;;;;;10.25;5.25;;;9.40;88.10;;;;;;5057336;28;20021;-69
2023/08/02 12:51:39;;;;;;;12.20;5.47;;;9.50;87.80;;;;;;5056229;28;20474;-68
2023/08/02 12:54:07;;;;;;;13.00;6.75;;;9.40;87.60;;;;;;5057367;28;20064;-69
2023/08/02 12:56:35;;;;;;;14.18;6.35;;;9.30;87.70;;;;;;5058125;28;20053;-68
2023/08/02 12:59:03;;;;;;;10.82;6.22;;;9.20;88.00;;;;;;5059020;28;20105;-66
2023/08/02 13:01:30;;;;;;;14.13;6.22;;;9.10;88.90;;;;;;5057226;28;20042;-69
2023/08/02 13:03:58;;;;;;;12.75;7.50;;;9.30;88.80;;;;;;5057304;28;20070;-70
2023/08/02 13:06:25;;;;;;;11.85;7.13;;;9.10;87.90;;;;;;5058448;28;20045;-70
2023/08/02 13:08:53;;;;;;;18.48;7.60;;;9.20;88.50;;;;;;5057602;28;20024;-68
2023/08/02 13:11:20;;;;;;;16.95;8.07;;;9.20;88.40;;;;;;5058275;28;20029;-68
2023/08/02 13:13:48;;;;;;;14.63;6.85;;;9.10;89.50;;;;;;5058943;28;20025;-68
2023/08/02 13:16:16;;;;;;;16.15;8.23;;;9.10;89.10;;;;;;5057864;28;20021;-69
2023/08/02 13:18:43;;;;;;;16.20;7.20;;;9.00;89.00;;;;;;5057568;28;20025;-69
2023/08/02 13:21:11;;;;;;;16.08;7.88;;;9.00;88.80;;;;;;5058901;28;20347;-69
2023/08/02 13:23:38;;;;;;;15.65;7.13;;;9.10;88.20;;;;;;5056651;28;20060;-68
2023/08/02 13:26:06;;;;;;;16.13;7.13;;;9.10;89.60;;;;;;5058813;28;20017;-68
2023/08/02 13:28:33;;;;;;;12.25;6.20;;;9.20;89.40;;;;;;5055605;28;20032;-69
2023/08/02 13:31:01;;;;;;;22.25;7.95;;;9.20;89.30;;;;;;5056622;28;20108;-69
2023/08/02 13:33:29;;;;;;;17.52;6.80;;;9.30;90.40;;;;;;5057411;28;20028;-69